Time;durP1;ratioP1;P1;durP2;ratioP2;P2;SDS_P1;SDS_P2;PMS_P1;PMS_P2;Temp;Humidity;BMP_temperature;BMP_pressure;BME280_temperature;BME280_humidity;BME280_pressure;Samples;Min_cycle;Max_cycle;Signal;HPM_P1;HPM_P2
2023/09/08 00:01:40;;;;;;;13.60;10.30;;;;;;;17.20;87.91;98706.38;106748;1277;24115;-78
2023/09/08 00:04:08;;;;;;;15.00;11.10;;;;;;;17.18;87.65;98710.96;106883;1278;24174;-78
2023/09/08 00:06:36;;;;;;;11.80;10.40;;;;;;;17.16;87.56;98714.10;106766;1277;25353;-80
2023/09/08 00:09:05;;;;;;;14.60;10.90;;;;;;;17.15;87.64;98712.31;106729;1277;22908;-79
2023/09/08 00:11:33;;;;;;;11.40;10.30;;;;;;;17.10;87.49;98707.39;107015;1278;22590;-79
2023/09/08 00:14:01;;;;;;;13.40;11.10;;;;;;;17.04;87.44;98705.70;107049;1277;22579;-80
2023/09/08 00:16:30;;;;;;;12.30;11.00;;;;;;;16.96;87.37;98702.13;106996;1277;22546;-78
2023/09/08 00:18:58;;;;;;;15.00;11.80;;;;;;;16.90;87.32;98699.87;106830;1278;22543;-79
2023/09/08 00:21:27;;;;;;;11.40;10.30;;;;;;;16.86;87.36;98695.38;107259;1277;22552;-78
2023/09/08 00:23:55;;;;;;;12.30;10.50;;;;;;;16.82;87.51;98696.15;106644;1262;22532;-79
2023/09/08 00:26:23;;;;;;;13.50;11.30;;;;;;;16.79;87.80;98698.07;106940;1277;24354;-80
2023/09/08 00:28:51;;;;;;;12.40;10.80;;;;;;;16.76;87.84;98695.50;106750;1278;220342;-79
2023/09/08 00:31:19;;;;;;;12.60;10.50;;;;;;;16.73;87.85;98697.04;106928;1279;25292;-79
2023/09/08 00:33:47;;;;;;;12.10;10.60;;;;;;;16.71;87.92;98696.66;106586;1278;22551;-80
2023/09/08 00:36:15;;;;;;;12.60;10.80;;;;;;;16.71;87.92;98692.54;106927;1278;22529;-79
2023/09/08 00:38:43;;;;;;;14.00;11.30;;;;;;;16.71;88.11;98691.92;106946;1279;22599;-79
2023/09/08 00:41:11;;;;;;;11.70;10.50;;;;;;;16.71;88.37;98685.52;106944;1278;24212;-79
2023/09/08 00:43:39;;;;;;;12.20;10.80;;;;;;;16.69;88.52;98690.55;106900;1279;22589;-80
2023/09/08 00:46:08;;;;;;;13.20;11.40;;;;;;;16.63;88.57;98684.77;106830;1278;22661;-79
2023/09/08 00:48:37;;;;;;;19.10;11.80;;;;;;;16.56;88.64;98686.15;106816;1278;22774;-79
2023/09/08 00:51:07;;;;;;;13.80;11.10;;;;;;;16.50;88.89;98683.33;106510;1269;22528;-79
2023/09/08 00:53:37;;;;;;;13.80;11.20;;;;;;;16.43;89.15;98678.91;106570;1279;22636;-79
2023/09/08 00:56:05;;;;;;;14.20;11.20;;;;;;;16.35;89.18;98677.67;106875;1279;22629;-77
2023/09/08 00:58:34;;;;;;;14.00;11.50;;;;;;;16.26;89.19;98676.02;106942;1278;22630;-79
2023/09/08 01:01:03;;;;;;;15.90;11.30;;;;;;;16.20;89.48;98675.13;106618;1278;24258;-78
2023/09/08 01:03:31;;;;;;;14.30;12.00;;;;;;;16.17;89.82;98672.84;106904;1273;22590;-79
2023/09/08 01:06:00;;;;;;;13.20;10.80;;;;;;;16.14;90.04;98673.27;106501;1278;22788;-79
2023/09/08 01:08:29;;;;;;;13.70;11.60;;;;;;;16.11;90.19;98676.09;106827;1278;22530;-78
2023/09/08 01:10:57;;;;;;;13.30;12.00;;;;;;;16.09;90.31;98678.39;106619;1278;22639;-78
2023/09/08 01:13:25;;;;;;;15.70;11.70;;;;;;;16.05;90.55;98675.33;106614;1278;23889;-80
2023/09/08 01:16:44;;;;;;;14.00;11.60;;;;;;;16.02;90.49;98678.46;107003;1278;25498;-79
2023/09/08 01:19:16;;;;;;;12.80;11.00;;;;;;;16.01;90.90;98679.33;106886;1278;25471;-79
2023/09/08 01:22:03;;;;;;;14.10;12.20;;;;;;;15.99;91.04;98681.64;106906;1258;22527;-80
2023/09/08 01:25:00;;;;;;;17.70;11.70;;;;;;;15.96;91.22;98680.61;106923;1278;24392;-80
2023/09/08 01:27:32;;;;;;;13.30;11.60;;;;;;;15.89;91.00;98679.60;106889;1278;22605;-80
2023/09/08 01:30:02;;;;;;;16.40;11.90;;;;;;;15.86;91.37;98678.55;106862;1278;25454;-80
2023/09/08 01:32:33;;;;;;;16.30;12.00;;;;;;;15.84;91.84;98680.38;107200;1278;22639;-78
2023/09/08 01:35:02;;;;;;;15.40;11.90;;;;;;;15.82;92.12;98680.89;106849;1278;24389;-79
2023/09/08 01:37:32;;;;;;;14.40;12.60;;;;;;;15.78;91.99;98679.59;106871;1278;25920;-80
2023/09/08 01:40:00;;;;;;;15.20;12.80;;;;;;;15.73;92.28;98681.78;106718;1277;22568;-78
2023/09/08 01:42:28;;;;;;;13.20;11.80;;;;;;;15.69;92.21;98685.40;107114;1278;22655;-79
2023/09/08 01:44:56;;;;;;;17.10;13.10;;;;;;;15.68;92.35;98684.07;106737;1278;25363;-78
2023/09/08 01:47:24;;;;;;;14.90;12.30;;;;;;;15.66;92.62;98675.60;106557;1278;22542;-79
2023/09/08 01:49:52;;;;;;;14.10;12.70;;;;;;;15.65;92.63;98678.16;107058;1278;24203;-78
2023/09/08 01:52:20;;;;;;;14.30;11.30;;;;;;;15.63;92.60;98676.91;106876;1278;22681;-78
2023/09/08 01:54:48;;;;;;;16.00;12.80;;;;;;;15.64;92.80;98678.45;106739;1278;22632;-78
2023/09/08 01:57:17;;;;;;;15.50;12.50;;;;;;;15.67;92.97;98683.27;106610;1277;25328;-79
2023/09/08 01:59:46;;;;;;;16.30;12.10;;;;;;;15.70;93.03;98686.52;106794;1277;22528;-78
2023/09/08 02:02:14;;;;;;;14.90;12.70;;;;;;;15.68;93.22;98685.42;106585;1278;22640;-78
2023/09/08 02:04:43;;;;;;;15.30;12.40;;;;;;;15.66;93.43;98681.50;106732;1277;23880;-80
2023/09/08 02:07:11;;;;;;;14.30;12.80;;;;;;;15.61;93.06;98684.89;106772;1278;24068;-78
2023/09/08 02:09:39;;;;;;;13.80;12.20;;;;;;;15.59;93.25;98686.35;107055;1278;24230;-79
2023/09/08 02:12:07;;;;;;;14.00;12.30;;;;;;;15.57;93.56;98685.59;106755;1277;22524;-79
2023/09/08 02:14:35;;;;;;;15.00;12.00;;;;;;;15.53;93.84;98680.51;106762;1277;22649;-79
2023/09/08 02:17:03;;;;;;;14.30;12.70;;;;;;;15.49;93.75;98679.39;107090;1277;23560;-78
2023/09/08 02:19:31;;;;;;;14.50;12.00;;;;;;;15.47;93.72;98676.68;106604;1277;25483;-78
2023/09/08 02:21:59;;;;;;;27.10;12.60;;;;;;;15.48;93.84;98675.20;106525;1254;22538;-78
2023/09/08 02:24:27;;;;;;;14.50;12.10;;;;;;;15.53;94.67;98675.92;106514;1277;22531;-79
2023/09/08 02:26:56;;;;;;;13.10;11.60;;;;;;;15.60;94.79;98673.07;106928;1278;22603;-79
2023/09/08 02:29:24;;;;;;;17.70;12.40;;;;;;;15.69;94.52;98673.60;106975;1267;22523;-79
2023/09/08 02:31:53;;;;;;;14.90;12.20;;;;;;;15.75;94.40;98676.06;106435;1278;22632;-79
2023/09/08 02:34:21;;;;;;;14.90;12.10;;;;;;;15.79;94.41;98672.91;106851;1277;22542;-79
2023/09/08 02:36:50;;;;;;;17.20;12.10;;;;;;;15.82;94.29;98670.42;107070;1278;22527;-79
2023/09/08 02:39:23;;;;;;;15.30;11.90;;;;;;;15.85;94.33;98662.83;106909;1278;25474;-79
2023/09/08 02:41:51;;;;;;;13.50;11.30;;;;;;;15.91;94.54;98659.69;106856;1277;24407;-79
2023/09/08 02:44:21;;;;;;;14.00;11.60;;;;;;;15.98;94.62;98662.11;107055;1277;22517;-79
2023/09/08 02:46:50;;;;;;;14.10;11.60;;;;;;;16.03;94.43;98657.23;107081;1278;22636;-78
2023/09/08 02:49:18;;;;;;;13.80;11.70;;;;;;;16.05;94.51;98653.81;106493;1278;22611;-78
2023/09/08 02:51:46;;;;;;;15.90;13.10;;;;;;;16.06;94.67;98651.86;106585;1256;22628;-77
2023/09/08 02:54:14;;;;;;;14.10;12.40;;;;;;;16.06;94.41;98651.98;106732;1277;24256;-77
2023/09/08 02:56:42;;;;;;;13.90;12.50;;;;;;;16.03;94.57;98652.55;106779;1278;22648;-77
2023/09/08 02:59:11;;;;;;;16.00;12.70;;;;;;;15.93;94.89;98650.56;106684;1266;22632;-79
2023/09/08 03:01:40;;;;;;;14.50;13.00;;;;;;;15.81;95.34;98651.51;106926;1278;22528;-79
2023/09/08 03:04:09;;;;;;;16.80;14.00;;;;;;;15.67;95.38;98653.00;106817;1277;24348;-79
2023/09/08 03:06:37;;;;;;;17.00;12.60;;;;;;;15.58;95.41;98648.66;106999;1278;22584;-79
2023/09/08 03:09:05;;;;;;;13.80;12.30;;;;;;;15.53;95.34;98645.19;106843;1278;22601;-78
2023/09/08 03:11:33;;;;;;;17.70;13.20;;;;;;;15.49;95.97;98648.83;106931;1277;25233;-77
2023/09/08 03:14:01;;;;;;;15.80;13.20;;;;;;;15.42;96.21;98645.52;106590;1277;25484;-78
2023/09/08 03:16:31;;;;;;;18.70;14.90;;;;;;;15.31;96.20;98642.02;106572;1277;22549;-78
2023/09/08 03:18:59;;;;;;;15.60;13.20;;;;;;;15.21;96.20;98639.89;106849;1278;22534;-78
2023/09/08 03:21:27;;;;;;;15.90;13.80;;;;;;;15.11;95.97;98637.41;106667;1277;24384;-78
2023/09/08 03:23:55;;;;;;;14.70;13.10;;;;;;;15.05;95.83;98635.83;106937;1278;23414;-79
2023/09/08 03:26:23;;;;;;;15.70;14.10;;;;;;;14.99;95.89;98628.22;106701;1277;25474;-79
2023/09/08 03:28:51;;;;;;;14.90;13.50;;;;;;;14.91;96.11;98625.85;106904;1278;25254;-78
2023/09/08 03:31:19;;;;;;;15.00;13.30;;;;;;;14.88;96.34;98623.05;106704;1278;23879;-79
2023/09/08 03:33:47;;;;;;;15.20;13.10;;;;;;;14.87;96.69;98619.88;107067;1277;22742;-79
2023/09/08 03:36:16;;;;;;;16.50;13.10;;;;;;;14.87;97.38;98615.86;107071;1277;22444;-78
2023/09/08 03:38:46;;;;;;;14.20;12.70;;;;;;;14.89;97.80;98617.89;106750;1277;22520;-78
2023/09/08 03:41:14;;;;;;;15.90;13.40;;;;;;;14.88;97.75;98616.86;106522;1277;22740;-78
2023/09/08 03:43:42;;;;;;;14.40;12.90;;;;;;;14.87;97.45;98618.00;107056;1277;22572;-79
2023/09/08 03:46:10;;;;;;;14.80;13.20;;;;;;;14.89;97.65;98620.59;107088;1277;22519;-79
2023/09/08 03:48:39;;;;;;;17.90;13.00;;;;;;;14.93;97.74;98616.54;106555;1278;24278;-79
2023/09/08 03:51:07;;;;;;;15.80;13.10;;;;;;;15.00;98.36;98611.85;106565;1278;25594;-80
2023/09/08 03:53:35;;;;;;;16.50;12.70;;;;;;;15.11;99.00;98614.60;107399;1277;22566;-82
2023/09/08 03:56:04;;;;;;;13.30;12.00;;;;;;;15.22;98.83;98613.98;107027;1277;24289;-79
2023/09/08 03:58:32;;;;;;;15.40;12.40;;;;;;;15.33;99.32;98612.66;107285;1277;22688;-78
2023/09/08 04:01:00;;;;;;;16.10;13.40;;;;;;;15.43;99.35;98610.07;107122;1278;22717;-80
2023/09/08 04:03:28;;;;;;;15.00;13.60;;;;;;;15.51;99.44;98610.96;106769;1278;22572;-78
2023/09/08 04:05:57;;;;;;;14.10;12.70;;;;;;;15.59;99.60;98610.45;106880;1277;22749;-79
2023/09/08 04:08:25;;;;;;;16.70;11.70;;;;;;;15.71;100.00;98613.30;106614;1277;25306;-79
2023/09/08 04:10:54;;;;;;;15.70;12.40;;;;;;;15.82;99.80;98614.03;107061;1277;22654;-78
2023/09/08 04:13:22;;;;;;;14.80;13.30;;;;;;;15.89;99.31;98615.33;107118;1277;22517;-79
2023/09/08 04:15:50;;;;;;;14.20;12.70;;;;;;;15.96;99.02;98618.04;106740;1277;23857;-79
2023/09/08 04:18:18;;;;;;;15.30;13.80;;;;;;;15.99;98.85;98619.52;106726;1277;22584;-78
2023/09/08 04:20:47;;;;;;;14.20;12.70;;;;;;;16.02;98.75;98619.90;106647;1255;22693;-78
2023/09/08 04:23:16;;;;;;;15.10;13.10;;;;;;;16.08;98.68;98618.06;106717;1277;23002;-79
2023/09/08 04:25:44;;;;;;;17.20;13.70;;;;;;;16.14;98.71;98617.23;107088;1277;22618;-79
2023/09/08 04:28:12;;;;;;;17.30;13.70;;;;;;;16.20;98.91;98619.39;106635;1278;22524;-79
2023/09/08 04:30:40;;;;;;;16.70;13.30;;;;;;;16.24;98.88;98620.58;106596;1279;26649;-79
2023/09/08 04:33:08;;;;;;;17.20;14.00;;;;;;;16.26;98.70;98619.68;106952;1279;22653;-79
2023/09/08 04:35:37;;;;;;;16.50;13.90;;;;;;;16.24;98.19;98618.95;106976;1278;24367;-79
2023/09/08 04:38:07;;;;;;;18.40;13.30;;;;;;;16.16;98.01;98619.35;106843;1278;24440;-79
2023/09/08 04:40:35;;;;;;;15.60;14.00;;;;;;;16.07;97.95;98618.89;106855;1279;22620;-80
2023/09/08 04:43:03;;;;;;;33.70;17.10;;;;;;;15.99;98.21;98613.66;106825;1278;22548;-79
2023/09/08 04:45:33;;;;;;;22.70;16.00;;;;;;;15.89;98.29;98617.96;106465;1279;23882;-80
2023/09/08 04:48:02;;;;;;;20.60;15.20;;;;;;;15.81;98.16;98617.42;106492;1279;25481;-79
2023/09/08 04:50:30;;;;;;;15.70;13.90;;;;;;;15.76;98.23;98618.66;106864;1279;22655;-79
2023/09/08 04:52:58;;;;;;;20.00;13.80;;;;;;;15.73;98.13;98618.95;106868;1279;23807;-80
2023/09/08 04:55:26;;;;;;;17.30;14.40;;;;;;;15.71;98.40;98615.80;106965;1279;22542;-79
2023/09/08 04:57:54;;;;;;;19.90;14.50;;;;;;;15.70;98.84;98615.29;106812;1278;22636;-79
2023/09/08 05:00:26;;;;;;;15.80;14.10;;;;;;;15.69;98.99;98614.12;106510;1279;22549;-79
2023/09/08 05:02:54;;;;;;;18.90;14.30;;;;;;;15.70;98.89;98617.84;106898;1257;22727;-79
2023/09/08 05:05:22;;;;;;;17.40;14.60;;;;;;;15.74;99.12;98620.27;106945;1279;22529;-80
2023/09/08 05:07:53;;;;;;;20.10;14.20;;;;;;;15.78;99.12;98623.73;106782;1278;25422;-79
2023/09/08 05:10:21;;;;;;;16.50;14.80;;;;;;;15.80;99.21;98625.33;106763;1279;22523;-79
2023/09/08 05:12:49;;;;;;;18.60;16.70;;;;;;;15.81;99.22;98629.16;106805;1279;22528;-79
2023/09/08 05:15:20;;;;;;;17.00;15.20;;;;;;;15.79;99.09;98626.27;106672;1279;22524;-78
2023/09/08 05:17:52;;;;;;;17.00;15.20;;;;;;;15.80;99.00;98624.08;106721;1279;25401;-78
2023/09/08 05:20:21;;;;;;;18.90;14.80;;;;;;;15.83;99.02;98630.12;106771;1273;25668;-81
2023/09/08 05:22:50;;;;;;;16.60;14.90;;;;;;;15.87;99.39;98629.30;106984;1278;22592;-77
2023/09/08 05:25:18;;;;;;;17.50;15.40;;;;;;;15.93;99.36;98631.01;106611;1272;25282;-76
2023/09/08 05:27:46;;;;;;;18.20;15.90;;;;;;;15.97;99.44;98630.92;106562;1270;22538;-77
2023/09/08 05:30:15;;;;;;;17.30;15.00;;;;;;;16.01;99.42;98636.08;106696;1270;22545;-77
2023/09/08 05:32:43;;;;;;;18.50;15.50;;;;;;;16.06;99.36;98633.60;106682;1256;22608;-77
2023/09/08 05:35:14;;;;;;;16.60;14.80;;;;;;;16.15;99.40;98634.94;106701;1276;22556;-77
2023/09/08 05:37:42;;;;;;;19.20;14.50;;;;;;;16.24;99.39;98635.52;107152;1270;22742;-78
2023/09/08 05:40:11;;;;;;;17.40;15.10;;;;;;;16.34;99.44;98634.64;107102;1255;22665;-77
2023/09/08 05:42:39;;;;;;;17.20;15.40;;;;;;;16.42;99.32;98639.98;106705;1270;25400;-78
2023/09/08 05:45:11;;;;;;;17.80;15.30;;;;;;;16.49;99.38;98635.86;106801;1273;22529;-78
2023/09/08 05:47:39;;;;;;;16.30;14.70;;;;;;;16.57;99.42;98641.05;106900;1275;22524;-78
2023/09/08 05:50:08;;;;;;;15.90;14.20;;;;;;;16.67;99.26;98643.90;106557;1277;25220;-78
2023/09/08 05:52:36;;;;;;;15.60;10.60;;;;;;;16.78;99.45;98645.48;107081;1272;23142;-79
2023/09/08 05:55:05;;;;;;;17.00;15.20;;;;;;;16.96;99.87;98647.09;106743;1257;24444;-79
2023/09/08 05:57:34;;;;;;;16.50;14.40;;;;;;;17.14;99.66;98646.45;107059;1277;22547;-79
2023/09/08 06:00:03;;;;;;;14.30;11.50;;;;;;;17.28;99.71;98643.39;107142;1270;25275;-77
2023/09/08 06:02:39;;;;;;;14.90;13.40;;;;;;;17.49;99.88;98646.28;107196;1271;24360;-78
2023/09/08 06:05:13;;;;;;;14.30;12.60;;;;;;;17.63;99.30;98646.88;107222;1275;22624;-78
2023/09/08 06:07:41;;;;;;;15.30;11.70;;;;;;;17.75;99.01;98650.58;107278;1262;22538;-79
2023/09/08 06:10:30;;;;;;;16.10;14.40;;;;;;;17.92;98.86;98650.63;107063;1277;22535;-78
2023/09/08 06:12:59;;;;;;;16.30;14.50;;;;;;;18.02;98.82;98649.01;107233;1270;22774;-79
2023/09/08 06:15:27;;;;;;;15.80;14.20;;;;;;;18.11;98.71;98648.38;106887;1278;25370;-81
2023/09/08 06:17:55;;;;;;;14.80;13.20;;;;;;;18.25;98.54;98648.65;107151;1274;22772;-80
2023/09/08 06:20:24;;;;;;;15.30;13.70;;;;;;;18.37;98.61;98649.67;107112;1270;22531;-80
2023/09/08 06:22:53;;;;;;;16.10;13.20;;;;;;;18.55;98.39;98652.38;107036;1277;22539;-81
2023/09/08 06:25:21;;;;;;;15.40;13.80;;;;;;;18.77;98.16;98649.61;107212;1270;25471;-82
2023/09/08 06:27:50;;;;;;;18.90;15.50;;;;;;;18.90;97.44;98650.25;107152;1272;22493;-81
2023/09/08 06:30:18;;;;;;;15.90;14.30;;;;;;;19.01;96.74;98647.96;106997;1278;24045;-79
2023/09/08 06:32:46;;;;;;;14.00;12.70;;;;;;;19.09;96.61;98654.12;107140;1254;25454;-83
2023/09/08 06:35:14;;;;;;;16.60;14.80;;;;;;;19.24;96.57;98650.60;106925;1277;22994;-82
2023/09/08 06:37:43;;;;;;;18.60;14.10;;;;;;;19.36;95.59;98652.33;107429;1278;25348;-81
2023/09/08 06:40:11;;;;;;;18.30;14.10;;;;;;;19.41;95.11;98648.04;106956;1270;22555;-80
2023/09/08 06:42:39;;;;;;;17.40;15.10;;;;;;;19.44;94.83;98651.44;106895;1278;22534;-81
2023/09/08 06:45:17;;;;;;;17.80;15.10;;;;;;;19.47;94.44;98645.44;107119;1277;22924;-82
2023/09/08 06:47:46;;;;;;;16.40;14.00;;;;;;;19.48;94.20;98647.05;107446;1276;22663;-83
2023/09/08 06:50:14;;;;;;;15.90;14.20;;;;;;;19.50;94.05;98647.19;107134;1271;22640;-81
2023/09/08 06:52:42;;;;;;;20.00;13.70;;;;;;;19.52;92.80;98648.20;107215;1275;22546;-82
2023/09/08 06:55:11;;;;;;;18.50;14.90;;;;;;;19.50;92.73;98646.93;107132;1277;25445;-80
2023/09/08 06:57:39;;;;;;;16.10;13.90;;;;;;;19.53;92.33;98649.07;107051;1262;22627;-81
2023/09/08 07:00:08;;;;;;;13.50;12.10;;;;;;;19.55;92.41;98650.33;106776;1270;22595;-83
2023/09/08 07:02:38;;;;;;;15.90;13.30;;;;;;;19.71;92.98;98649.29;107250;1277;22638;-82
2023/09/08 07:05:08;;;;;;;18.80;13.60;;;;;;;19.83;92.01;98651.81;107293;1266;24999;-81
2023/09/08 07:07:37;;;;;;;14.90;13.50;;;;;;;19.89;91.40;98655.43;107119;1270;24364;-80
2023/09/08 07:10:06;;;;;;;16.00;14.00;;;;;;;19.93;91.22;98655.67;107143;1263;23279;-80
2023/09/08 07:12:34;;;;;;;16.50;13.40;;;;;;;19.94;90.35;98651.70;107105;1275;22530;-80
2023/09/08 07:15:02;;;;;;;15.40;13.90;;;;;;;19.98;90.51;98660.02;107018;1278;25291;-80
2023/09/08 07:17:30;;;;;;;18.30;14.40;;;;;;;20.03;89.21;98660.11;107057;1277;25269;-81
2023/09/08 07:19:59;;;;;;;21.80;12.70;;;;;;;19.99;88.60;98667.40;107152;1277;23735;-81
2023/09/08 07:22:27;;;;;;;16.00;12.90;;;;;;;20.02;88.77;98665.98;107243;1275;22538;-80
2023/09/08 07:24:55;;;;;;;14.60;13.00;;;;;;;20.02;88.66;98668.57;107216;1256;22529;-82
2023/09/08 07:27:24;;;;;;;14.10;12.70;;;;;;;20.09;89.12;98669.42;107151;1276;22527;-81
2023/09/08 07:29:52;;;;;;;15.50;13.90;;;;;;;20.20;88.80;98671.11;107148;1275;22586;-82
2023/09/08 07:32:22;;;;;;;16.50;12.40;;;;;;;20.24;88.67;98668.01;107071;1276;22650;-81
2023/09/08 07:34:54;;;;;;;14.60;13.10;;;;;;;20.33;88.68;98667.22;107770;1275;22567;-83
2023/09/08 07:37:24;;;;;;;16.30;11.80;;;;;;;20.43;87.87;98665.55;107532;1267;23053;-81
2023/09/08 07:39:52;;;;;;;14.10;12.00;;;;;;;20.51;87.82;98668.31;107550;1270;22543;-82
2023/09/08 07:42:23;;;;;;;12.10;10.80;;;;;;;20.50;87.68;98647.32;107759;1278;26632;-82
2023/09/08 07:44:51;;;;;;;12.30;10.70;;;;;;;20.74;87.45;98665.08;107084;1278;22534;-81
2023/09/08 07:47:19;;;;;;;13.80;12.20;;;;;;;20.83;87.18;98663.86;107207;1278;23216;-80
2023/09/08 07:49:48;;;;;;;15.80;12.20;;;;;;;20.93;87.15;98664.60;107237;1277;22657;-81
2023/09/08 07:52:16;;;;;;;15.50;13.10;;;;;;;21.02;86.25;98663.13;107244;1278;25285;-82
2023/09/08 07:54:44;;;;;;;13.10;11.70;;;;;;;21.05;85.99;98663.68;107197;1277;22540;-81
2023/09/08 07:57:12;;;;;;;16.00;11.60;;;;;;;21.09;85.54;98663.39;107243;1270;25186;-81
2023/09/08 07:59:40;;;;;;;14.10;11.50;;;;;;;21.16;85.55;98661.01;107218;1277;22579;-80
2023/09/08 08:02:08;;;;;;;16.30;12.80;;;;;;;21.25;85.27;98661.96;106797;1277;25403;-80
2023/09/08 08:04:36;;;;;;;16.00;12.70;;;;;;;21.30;85.05;98663.11;107321;1254;22728;-82
2023/09/08 08:07:05;;;;;;;15.40;13.40;;;;;;;21.41;84.95;98660.36;107198;1278;22640;-82
2023/09/08 08:09:33;;;;;;;17.70;13.60;;;;;;;21.50;85.08;98660.52;107120;1275;22530;-82
2023/09/08 08:12:01;;;;;;;24.00;15.50;;;;;;;21.64;84.90;98659.55;107148;1270;25298;-81
2023/09/08 08:14:29;;;;;;;15.90;11.90;;;;;;;21.71;83.60;98656.98;107187;1262;22639;-81
2023/09/08 08:16:57;;;;;;;25.60;15.70;;;;;;;21.73;83.22;98653.42;107166;1270;25354;-80
2023/09/08 08:19:25;;;;;;;14.20;11.00;;;;;;;21.77;83.28;98652.75;107210;1277;25307;-81
2023/09/08 08:21:56;;;;;;;14.30;10.70;;;;;;;21.85;82.93;98650.27;107216;1272;22668;-81
2023/09/08 08:24:24;;;;;;;21.10;13.20;;;;;;;21.91;82.54;98646.79;107238;1277;22539;-80
2023/09/08 08:26:52;;;;;;;14.90;11.40;;;;;;;22.01;82.72;98648.99;107164;1270;22553;-81
2023/09/08 08:29:20;;;;;;;37.70;19.30;;;;;;;22.10;82.41;98646.39;107121;1277;23452;-81
2023/09/08 08:31:48;;;;;;;27.10;16.00;;;;;;;22.17;81.64;98648.22;107227;1272;23289;-82
2023/09/08 08:34:16;;;;;;;19.60;12.80;;;;;;;22.22;81.53;98647.95;107208;1278;25342;-81
2023/09/08 08:36:44;;;;;;;12.80;10.70;;;;;;;22.29;81.44;98647.55;107129;1270;25367;-79
2023/09/08 08:39:12;;;;;;;16.50;11.80;;;;;;;22.35;81.38;98643.13;107127;1278;22683;-81
2023/09/08 08:41:41;;;;;;;12.40;11.00;;;;;;;22.39;80.56;98646.61;107160;1278;25304;-81
2023/09/08 08:44:09;;;;;;;18.20;11.30;;;;;;;22.40;80.48;98644.35;107254;1277;22578;-81
2023/09/08 08:46:40;;;;;;;15.10;10.20;;;;;;;22.47;80.62;98642.45;107236;1277;26606;-80
2023/09/08 08:49:10;;;;;;;12.80;10.10;;;;;;;22.56;79.85;98643.20;107284;1277;22552;-80
2023/09/08 08:51:40;;;;;;;16.20;10.80;;;;;;;22.60;78.63;98641.16;107179;1278;25475;-80
2023/09/08 08:54:08;;;;;;;15.50;10.50;;;;;;;22.65;79.07;98639.85;107078;1275;22519;-80
2023/09/08 08:56:37;;;;;;;13.40;10.00;;;;;;;22.74;78.20;98637.13;107243;1276;22525;-80
2023/09/08 08:59:05;;;;;;;12.00;10.80;;;;;;;22.80;77.75;98634.98;107173;1277;22526;-80
2023/09/08 09:01:33;;;;;;;14.20;10.30;;;;;;;22.86;77.29;98634.48;107191;1277;22646;-80
2023/09/08 09:04:05;;;;;;;14.30;9.80;;;;;;;22.87;77.18;98635.98;107179;1275;24212;-80
2023/09/08 09:06:34;;;;;;;13.10;10.00;;;;;;;22.98;77.43;98637.48;107271;1278;24360;-80
2023/09/08 09:09:05;;;;;;;13.70;10.40;;;;;;;23.08;76.41;98633.43;107181;1277;22546;-82
2023/09/08 09:11:33;;;;;;;12.70;9.10;;;;;;;23.16;75.55;98633.65;107219;1278;22708;-81
2023/09/08 09:14:02;;;;;;;16.10;9.20;;;;;;;23.23;74.94;98631.28;107223;1273;22688;-81
2023/09/08 09:16:30;;;;;;;14.20;9.80;;;;;;;23.32;75.73;98631.14;107030;1277;22548;-81
2023/09/08 09:18:59;;;;;;;13.00;8.70;;;;;;;23.44;75.72;98624.18;106688;1272;24678;-81
2023/09/08 09:21:47;;;;;;;14.00;9.10;;;;;;;23.54;75.81;98626.55;106778;1278;22517;-80
2023/09/08 09:24:32;;;;;;;13.10;9.60;;;;;;;23.71;75.21;98629.21;107215;1277;22632;-81
2023/09/08 09:27:01;;;;;;;12.70;8.80;;;;;;;23.81;74.32;98622.79;107249;1275;22527;-80
2023/09/08 09:29:30;;;;;;;10.40;8.90;;;;;;;23.89;73.19;98619.45;107273;1277;22529;-81
2023/09/08 09:32:04;;;;;;;12.00;8.00;;;;;;;23.96;72.14;98614.28;107252;1277;25342;-79
2023/09/08 09:34:32;;;;;;;10.10;8.20;;;;;;;24.05;71.87;98615.20;107313;1277;22527;-81
2023/09/08 09:37:00;;;;;;;12.90;8.20;;;;;;;24.10;71.33;98610.80;107247;1277;22884;-81
2023/09/08 09:39:28;;;;;;;12.00;8.20;;;;;;;24.22;71.39;98613.56;107222;1277;22541;-81
2023/09/08 09:41:57;;;;;;;11.60;7.60;;;;;;;24.34;69.31;98609.95;107166;1277;24297;-79
2023/09/08 09:44:25;;;;;;;9.50;8.20;;;;;;;24.45;70.21;98610.41;107151;1277;24561;-79
2023/09/08 09:46:54;;;;;;;14.10;7.70;;;;;;;24.57;67.71;98607.67;107238;1277;24249;-80
2023/09/08 09:49:23;;;;;;;9.50;6.80;;;;;;;24.61;67.30;98602.69;107065;1275;22540;-80
2023/09/08 09:51:53;;;;;;;9.90;7.80;;;;;;;24.70;67.43;98604.29;107075;1277;22778;-81
2023/09/08 09:54:21;;;;;;;12.80;8.20;;;;;;;24.78;67.06;98602.96;107296;1277;24379;-80
2023/09/08 09:56:51;;;;;;;11.60;7.50;;;;;;;24.90;67.35;98601.21;107328;1275;25338;-82
2023/09/08 09:59:21;;;;;;;9.60;7.30;;;;;;;24.99;66.44;98602.73;107355;1277;22527;-79
2023/09/08 10:01:50;;;;;;;11.00;7.30;;;;;;;25.09;65.32;98597.38;107197;1277;23224;-79
2023/09/08 10:04:19;;;;;;;10.00;7.20;;;;;;;25.15;64.91;98598.89;107368;1278;23329;-79
2023/09/08 10:06:48;;;;;;;15.60;7.10;;;;;;;25.20;65.14;98595.57;106973;1277;23262;-80
2023/09/08 10:09:19;;;;;;;12.10;7.30;;;;;;;25.28;63.93;98595.80;107211;1277;23896;-81
2023/09/08 10:11:48;;;;;;;12.60;7.60;;;;;;;25.42;63.89;98592.85;106861;1278;24388;-81
2023/09/08 10:14:18;;;;;;;12.90;7.50;;;;;;;25.53;62.93;98592.39;106789;1277;23125;-81
2023/09/08 10:16:53;;;;;;;11.60;7.10;;;;;;;25.66;63.97;98588.08;106856;1277;22689;-81
2023/09/08 10:19:22;;;;;;;10.40;6.70;;;;;;;25.70;62.36;98591.18;107124;1272;25501;-82
2023/09/08 10:21:54;;;;;;;10.90;5.80;;;;;;;25.76;62.42;98588.48;107058;1278;22752;-80
2023/09/08 10:24:26;;;;;;;12.10;6.00;;;;;;;25.84;61.94;98591.55;107270;1277;22574;-84
2023/09/08 10:27:00;;;;;;;8.70;6.10;;;;;;;25.94;61.97;98589.10;107268;1277;22537;-81
2023/09/08 10:29:31;;;;;;;9.00;6.80;;;;;;;26.05;61.04;98586.33;107200;1277;24249;-79
2023/09/08 10:31:59;;;;;;;10.10;6.30;;;;;;;26.14;60.58;98585.13;107190;1277;22653;-80
2023/09/08 10:34:28;;;;;;;11.80;7.20;;;;;;;26.18;60.06;98586.73;107130;1277;24066;-80
2023/09/08 10:36:57;;;;;;;7.80;6.50;;;;;;;26.25;59.44;98584.07;107166;1277;25281;-81
2023/09/08 10:39:41;;;;;;;7.60;6.40;;;;;;;26.29;59.14;98588.52;107227;1277;22542;-80
2023/09/08 10:42:20;;;;;;;9.30;6.80;;;;;;;26.30;57.22;98582.20;106841;1278;22632;-79
2023/09/08 10:44:48;;;;;;;11.70;6.80;;;;;;;26.29;57.44;98581.17;107213;1277;22677;-80
2023/09/08 10:47:22;;;;;;;10.10;6.40;;;;;;;26.40;57.32;98578.08;107244;1275;22538;-79
2023/09/08 10:49:53;;;;;;;10.90;6.70;;;;;;;26.47;56.48;98577.73;107276;1275;22541;-81
2023/09/08 10:52:25;;;;;;;10.30;6.70;;;;;;;26.57;57.29;98570.83;107541;1277;22583;-80
2023/09/08 10:54:55;;;;;;;8.40;5.80;;;;;;;26.64;56.27;98567.86;107660;1278;22663;-82
2023/09/08 10:57:25;;;;;;;10.70;6.40;;;;;;;26.73;56.19;98570.48;107314;1266;22785;-83
2023/09/08 10:59:54;;;;;;;9.20;6.90;;;;;;;26.76;55.35;98571.36;107229;1278;22673;-83
2023/09/08 11:02:39;;;;;;;9.90;6.10;;;;;;;26.87;55.87;98569.42;107123;1278;22767;-83
2023/09/08 11:05:13;;;;;;;11.10;6.90;;;;;;;27.00;55.12;98571.27;107140;1263;25924;-82
2023/09/08 11:07:45;;;;;;;12.10;7.10;;;;;;;27.06;54.20;98572.08;107145;1278;24213;-81
2023/09/08 11:10:13;;;;;;;16.70;7.00;;;;;;;27.01;54.39;98567.71;107343;1277;22528;-81
2023/09/08 11:12:41;;;;;;;9.40;6.50;;;;;;;27.07;54.37;98570.65;107264;1277;22567;-83
2023/09/08 11:15:10;;;;;;;10.50;6.30;;;;;;;27.16;54.75;98569.04;107365;1275;24175;-80
2023/09/08 11:17:41;;;;;;;16.60;6.80;;;;;;;27.24;54.21;98564.30;107591;1268;22537;-82
2023/09/08 11:20:12;;;;;;;8.70;6.80;;;;;;;27.29;53.89;98566.20;106810;1255;22770;-80
2023/09/08 11:22:41;;;;;;;11.20;7.60;;;;;;;27.34;52.95;98563.51;107470;1277;22531;-80